sensor_id;sensor_type;location;lat;lon;timestamp;temperature;humidity
11093;DHT22;5600;50.864;6.102;2022-09-29T00:00:22;5.50;99.90
11093;DHT22;5600;50.864;6.102;2022-09-29T00:03:23;5.50;99.90
11093;DHT22;5600;50.864;6.102;2022-09-29T00:06:24;5.40;99.90
11093;DHT22;5600;50.864;6.102;2022-09-29T00:09:24;5.40;99.90
11093;DHT22;5600;50.864;6.102;2022-09-29T00:12:25;5.40;99.90
11093;DHT22;5600;50.864;6.102;2022-09-29T00:15:26;5.40;99.90
11093;DHT22;5600;50.864;6.102;2022-09-29T00:18:28;5.30;99.90
11093;DHT22;5600;50.864;6.102;2022-09-29T00:21:29;5.30;99.90
11093;DHT22;5600;50.864;6.102;2022-09-29T00:24:29;5.20;99.90
11093;DHT22;5600;50.864;6.102;2022-09-29T00:27:30;5.20;99.90
11093;DHT22;5600;50.864;6.102;2022-09-29T00:30:31;5.20;99.90
11093;DHT22;5600;50.864;6.102;2022-09-29T00:33:33;5.20;99.90
11093;DHT22;5600;50.864;6.102;2022-09-29T00:36:34;5.20;99.90
11093;DHT22;5600;50.864;6.102;2022-09-29T00:39:35;5.20;99.90
11093;DHT22;5600;50.864;6.102;2022-09-29T00:42:36;5.10;99.90
11093;DHT22;5600;50.864;6.102;2022-09-29T00:45:36;5.10;99.90
11093;DHT22;5600;50.864;6.102;2022-09-29T00:48:37;5.10;99.90
11093;DHT22;5600;50.864;6.102;2022-09-29T00:51:41;5.00;99.90
11093;DHT22;5600;50.864;6.102;2022-09-29T00:58:38;5.00;99.90
11093;DHT22;5600;50.864;6.102;2022-09-29T01:01:40;4.90;99.90
11093;DHT22;5600;50.864;6.102;2022-09-29T01:04:40;4.90;99.90
11093;DHT22;5600;50.864;6.102;2022-09-29T01:07:42;4.90;99.90
11093;DHT22;5600;50.864;6.102;2022-09-29T01:10:44;4.90;99.90
11093;DHT22;5600;50.864;6.102;2022-09-29T01:13:45;4.90;99.90
11093;DHT22;5600;50.864;6.102;2022-09-29T01:16:46;4.80;99.90
11093;DHT22;5600;50.864;6.102;2022-09-29T01:26:54;4.80;99.90
11093;DHT22;5600;50.864;6.102;2022-09-29T01:30:07;4.80;99.90
11093;DHT22;5600;50.864;6.102;2022-09-29T01:39:34;4.70;99.90
11093;DHT22;5600;50.864;6.102;2022-09-29T01:42:56;4.70;99.90
11093;DHT22;5600;50.864;6.102;2022-09-29T01:46:10;4.60;99.90
11093;DHT22;5600;50.864;6.102;2022-09-29T01:49:13;4.70;99.90
11093;DHT22;5600;50.864;6.102;2022-09-29T01:52:17;4.60;99.90
11093;DHT22;5600;50.864;6.102;2022-09-29T01:55:21;4.60;99.90
11093;DHT22;5600;50.864;6.102;2022-09-29T01:58:28;4.60;99.90
11093;DHT22;5600;50.864;6.102;2022-09-29T02:01:36;4.60;99.90
11093;DHT22;5600;50.864;6.102;2022-09-29T02:04:46;4.50;99.90
11093;DHT22;5600;50.864;6.102;2022-09-29T02:07:49;4.50;99.90
11093;DHT22;5600;50.864;6.102;2022-09-29T02:11:16;4.50;99.90
11093;DHT22;5600;50.864;6.102;2022-09-29T02:14:29;4.50;99.90
11093;DHT22;5600;50.864;6.102;2022-09-29T02:17:41;4.40;99.90
11093;DHT22;5600;50.864;6.102;2022-09-29T02:20:42;4.40;99.90
11093;DHT22;5600;50.864;6.102;2022-09-29T02:23:43;4.40;99.90
11093;DHT22;5600;50.864;6.102;2022-09-29T02:26:44;4.40;99.90
11093;DHT22;5600;50.864;6.102;2022-09-29T02:29:45;4.40;99.90
11093;DHT22;5600;50.864;6.102;2022-09-29T02:32:46;4.30;99.90
11093;DHT22;5600;50.864;6.102;2022-09-29T02:36:30;4.30;99.90
11093;DHT22;5600;50.864;6.102;2022-09-29T02:43:07;4.30;99.90
11093;DHT22;5600;50.864;6.102;2022-09-29T02:49:39;4.30;99.90
11093;DHT22;5600;50.864;6.102;2022-09-29T02:52:55;4.20;99.90
11093;DHT22;5600;50.864;6.102;2022-09-29T02:57:01;4.20;99.90
11093;DHT22;5600;50.864;6.102;2022-09-29T03:00:05;4.20;99.90
11093;DHT22;5600;50.864;6.102;2022-09-29T03:03:08;4.20;99.90
11093;DHT22;5600;50.864;6.102;2022-09-29T03:06:10;4.10;99.90
11093;DHT22;5600;50.864;6.102;2022-09-29T03:09:11;4.10;99.90
11093;DHT22;5600;50.864;6.102;2022-09-29T03:12:12;4.10;99.90
11093;DHT22;5600;50.864;6.102;2022-09-29T03:15:13;4.10;99.90
11093;DHT22;5600;50.864;6.102;2022-09-29T03:18:14;4.10;99.90
11093;DHT22;5600;50.864;6.102;2022-09-29T03:21:15;4.10;99.90
11093;DHT22;5600;50.864;6.102;2022-09-29T03:24:16;4.10;99.90
11093;DHT22;5600;50.864;6.102;2022-09-29T03:27:17;4.10;99.90
11093;DHT22;5600;50.864;6.102;2022-09-29T03:30:18;4.10;99.90
11093;DHT22;5600;50.864;6.102;2022-09-29T03:33:19;4.10;99.90
11093;DHT22;5600;50.864;6.102;2022-09-29T03:36:19;4.10;99.90
11093;DHT22;5600;50.864;6.102;2022-09-29T03:39:20;4.10;99.90
11093;DHT22;5600;50.864;6.102;2022-09-29T03:42:21;4.10;99.90
11093;DHT22;5600;50.864;6.102;2022-09-29T03:45:23;4.00;99.90
11093;DHT22;5600;50.864;6.102;2022-09-29T03:48:24;4.00;99.90
11093;DHT22;5600;50.864;6.102;2022-09-29T03:51:27;4.00;99.90
11093;DHT22;5600;50.864;6.102;2022-09-29T03:54:27;4.00;99.90
11093;DHT22;5600;50.864;6.102;2022-09-29T03:57:28;3.90;99.90
11093;DHT22;5600;50.864;6.102;2022-09-29T04:00:28;3.90;99.90
11093;DHT22;5600;50.864;6.102;2022-09-29T04:03:29;3.90;99.90
11093;DHT22;5600;50.864;6.102;2022-09-29T04:06:30;3.90;99.90
11093;DHT22;5600;50.864;6.102;2022-09-29T04:09:31;3.90;99.90
11093;DHT22;5600;50.864;6.102;2022-09-29T04:12:31;3.90;99.90
11093;DHT22;5600;50.864;6.102;2022-09-29T04:15:33;3.90;99.90
11093;DHT22;5600;50.864;6.102;2022-09-29T04:18:35;3.90;99.90
11093;DHT22;5600;50.864;6.102;2022-09-29T04:21:36;3.90;99.90
11093;DHT22;5600;50.864;6.102;2022-09-29T04:24:36;3.90;99.90
11093;DHT22;5600;50.864;6.102;2022-09-29T04:27:38;3.90;99.90
11093;DHT22;5600;50.864;6.102;2022-09-29T04:30:38;3.90;99.90
11093;DHT22;5600;50.864;6.102;2022-09-29T04:33:39;3.80;99.90
11093;DHT22;5600;50.864;6.102;2022-09-29T04:36:41;3.80;99.90
11093;DHT22;5600;50.864;6.102;2022-09-29T04:39:42;3.70;99.90
11093;DHT22;5600;50.864;6.102;2022-09-29T04:42:42;3.70;99.90
11093;DHT22;5600;50.864;6.102;2022-09-29T04:45:43;3.70;99.90
11093;DHT22;5600;50.864;6.102;2022-09-29T04:48:44;3.70;99.90
11093;DHT22;5600;50.864;6.102;2022-09-29T04:51:45;3.80;99.90
11093;DHT22;5600;50.864;6.102;2022-09-29T04:54:46;3.80;99.90
11093;DHT22;5600;50.864;6.102;2022-09-29T04:57:46;3.90;99.90
11093;DHT22;5600;50.864;6.102;2022-09-29T05:00:48;3.90;99.90
11093;DHT22;5600;50.864;6.102;2022-09-29T05:03:48;3.80;99.90
11093;DHT22;5600;50.864;6.102;2022-09-29T05:06:49;3.80;99.90
11093;DHT22;5600;50.864;6.102;2022-09-29T05:09:49;3.80;99.90
11093;DHT22;5600;50.864;6.102;2022-09-29T05:12:50;3.70;99.90
11093;DHT22;5600;50.864;6.102;2022-09-29T05:15:54;3.60;99.90
11093;DHT22;5600;50.864;6.102;2022-09-29T05:18:55;3.60;99.90
11093;DHT22;5600;50.864;6.102;2022-09-29T05:21:57;3.60;99.90
11093;DHT22;5600;50.864;6.102;2022-09-29T05:24:58;3.60;99.90
11093;DHT22;5600;50.864;6.102;2022-09-29T05:27:59;3.60;99.90
11093;DHT22;5600;50.864;6.102;2022-09-29T05:31:07;3.60;99.90
11093;DHT22;5600;50.864;6.102;2022-09-29T05:34:08;3.60;99.90
11093;DHT22;5600;50.864;6.102;2022-09-29T05:37:09;3.60;99.90
11093;DHT22;5600;50.864;6.102;2022-09-29T05:40:10;3.60;99.90
11093;DHT22;5600;50.864;6.102;2022-09-29T05:43:11;3.50;99.90
11093;DHT22;5600;50.864;6.102;2022-09-29T05:46:12;3.50;99.90
11093;DHT22;5600;50.864;6.102;2022-09-29T05:49:13;3.50;99.90
11093;DHT22;5600;50.864;6.102;2022-09-29T05:52:14;3.50;99.90
11093;DHT22;5600;50.864;6.102;2022-09-29T05:55:15;3.50;99.90
11093;DHT22;5600;50.864;6.102;2022-09-29T05:58:16;3.60;99.90
11093;DHT22;5600;50.864;6.102;2022-09-29T06:01:22;3.60;99.90
11093;DHT22;5600;50.864;6.102;2022-09-29T06:04:23;3.60;99.90
11093;DHT22;5600;50.864;6.102;2022-09-29T06:07:24;3.60;99.90
11093;DHT22;5600;50.864;6.102;2022-09-29T06:10:24;3.70;99.90
11093;DHT22;5600;50.864;6.102;2022-09-29T06:13:25;3.70;99.90
11093;DHT22;5600;50.864;6.102;2022-09-29T06:16:27;3.70;99.90
11093;DHT22;5600;50.864;6.102;2022-09-29T06:19:29;3.80;99.90
11093;DHT22;5600;50.864;6.102;2022-09-29T06:22:29;3.80;99.90
11093;DHT22;5600;50.864;6.102;2022-09-29T06:25:30;3.90;99.90
11093;DHT22;5600;50.864;6.102;2022-09-29T06:28:31;3.90;99.90
11093;DHT22;5600;50.864;6.102;2022-09-29T06:31:32;4.00;99.90
11093;DHT22;5600;50.864;6.102;2022-09-29T06:34:33;4.00;99.90
11093;DHT22;5600;50.864;6.102;2022-09-29T06:37:33;4.10;99.90
11093;DHT22;5600;50.864;6.102;2022-09-29T06:40:34;4.10;99.90
11093;DHT22;5600;50.864;6.102;2022-09-29T06:43:34;4.40;99.90
11093;DHT22;5600;50.864;6.102;2022-09-29T06:46:35;4.50;99.90
11093;DHT22;5600;50.864;6.102;2022-09-29T06:49:36;4.60;99.90
11093;DHT22;5600;50.864;6.102;2022-09-29T06:52:37;4.60;99.90
11093;DHT22;5600;50.864;6.102;2022-09-29T06:55:38;4.70;99.90
11093;DHT22;5600;50.864;6.102;2022-09-29T06:58:38;4.80;99.90
11093;DHT22;5600;50.864;6.102;2022-09-29T07:01:39;4.80;99.90
11093;DHT22;5600;50.864;6.102;2022-09-29T07:04:40;4.90;99.90
11093;DHT22;5600;50.864;6.102;2022-09-29T07:07:41;5.00;99.90
11093;DHT22;5600;50.864;6.102;2022-09-29T07:10:41;5.20;99.90
11093;DHT22;5600;50.864;6.102;2022-09-29T07:13:42;5.30;99.90
11093;DHT22;5600;50.864;6.102;2022-09-29T07:16:43;5.40;99.90
11093;DHT22;5600;50.864;6.102;2022-09-29T07:19:44;5.80;99.90
11093;DHT22;5600;50.864;6.102;2022-09-29T07:22:47;5.80;99.90
11093;DHT22;5600;50.864;6.102;2022-09-29T07:25:48;6.10;99.90
11093;DHT22;5600;50.864;6.102;2022-09-29T07:28:49;6.30;99.90
11093;DHT22;5600;50.864;6.102;2022-09-29T07:31:49;6.50;99.90
11093;DHT22;5600;50.864;6.102;2022-09-29T07:34:52;6.80;99.90
11093;DHT22;5600;50.864;6.102;2022-09-29T07:37:53;7.10;99.90
11093;DHT22;5600;50.864;6.102;2022-09-29T07:40:58;7.40;99.90
11093;DHT22;5600;50.864;6.102;2022-09-29T07:43:59;7.70;99.90
11093;DHT22;5600;50.864;6.102;2022-09-29T07:46:59;8.10;99.90
11093;DHT22;5600;50.864;6.102;2022-09-29T07:50:00;8.60;99.90
11093;DHT22;5600;50.864;6.102;2022-09-29T07:53:01;9.00;99.90
11093;DHT22;5600;50.864;6.102;2022-09-29T07:56:13;9.40;99.90
11093;DHT22;5600;50.864;6.102;2022-09-29T07:59:14;9.80;99.90
11093;DHT22;5600;50.864;6.102;2022-09-29T08:02:15;10.30;99.90
11093;DHT22;5600;50.864;6.102;2022-09-29T08:05:16;10.80;99.90
11093;DHT22;5600;50.864;6.102;2022-09-29T08:08:17;11.30;99.90
11093;DHT22;5600;50.864;6.102;2022-09-29T08:11:19;11.80;99.90
11093;DHT22;5600;50.864;6.102;2022-09-29T08:14:20;12.40;99.90
11093;DHT22;5600;50.864;6.102;2022-09-29T08:17:22;12.80;99.90
11093;DHT22;5600;50.864;6.102;2022-09-29T08:20:22;13.40;99.90
11093;DHT22;5600;50.864;6.102;2022-09-29T08:23:23;13.90;99.90
11093;DHT22;5600;50.864;6.102;2022-09-29T08:26:24;14.30;99.90
11093;DHT22;5600;50.864;6.102;2022-09-29T08:29:25;14.60;99.90
11093;DHT22;5600;50.864;6.102;2022-09-29T08:32:25;14.90;99.90
11093;DHT22;5600;50.864;6.102;2022-09-29T08:35:26;15.40;99.90
11093;DHT22;5600;50.864;6.102;2022-09-29T08:38:27;15.60;99.90
11093;DHT22;5600;50.864;6.102;2022-09-29T08:41:48;15.90;99.90
11093;DHT22;5600;50.864;6.102;2022-09-29T08:44:54;16.30;99.90
11093;DHT22;5600;50.864;6.102;2022-09-29T08:48:04;16.50;99.90
11093;DHT22;5600;50.864;6.102;2022-09-29T08:51:09;16.80;99.90
11093;DHT22;5600;50.864;6.102;2022-09-29T08:54:21;16.90;99.90
11093;DHT22;5600;50.864;6.102;2022-09-29T08:57:23;17.10;99.90
11093;DHT22;5600;50.864;6.102;2022-09-29T09:00:56;17.40;99.90
11093;DHT22;5600;50.864;6.102;2022-09-29T09:07:25;17.40;99.90
11093;DHT22;5600;50.864;6.102;2022-09-29T09:21:09;17.60;99.90
11093;DHT22;5600;50.864;6.102;2022-09-29T09:24:26;17.80;99.90
11093;DHT22;5600;50.864;6.102;2022-09-29T09:27:39;17.50;99.90
11093;DHT22;5600;50.864;6.102;2022-09-29T09:32:02;17.30;99.90
11093;DHT22;5600;50.864;6.102;2022-09-29T09:37:43;17.60;99.90
11093;DHT22;5600;50.864;6.102;2022-09-29T09:40:48;17.30;99.90
11093;DHT22;5600;50.864;6.102;2022-09-29T09:43:57;17.60;99.90
11093;DHT22;5600;50.864;6.102;2022-09-29T09:50:25;17.40;99.90
11093;DHT22;5600;50.864;6.102;2022-09-29T09:53:36;17.20;99.90
11093;DHT22;5600;50.864;6.102;2022-09-29T10:00:12;16.40;99.90
11093;DHT22;5600;50.864;6.102;2022-09-29T10:03:13;16.30;99.90
11093;DHT22;5600;50.864;6.102;2022-09-29T10:06:15;16.30;99.90
11093;DHT22;5600;50.864;6.102;2022-09-29T10:09:16;16.60;99.90
11093;DHT22;5600;50.864;6.102;2022-09-29T10:12:21;16.90;99.90
11093;DHT22;5600;50.864;6.102;2022-09-29T10:15:26;17.00;99.90
11093;DHT22;5600;50.864;6.102;2022-09-29T10:18:40;16.70;99.90
11093;DHT22;5600;50.864;6.102;2022-09-29T10:21:42;16.50;99.90
11093;DHT22;5600;50.864;6.102;2022-09-29T10:24:43;16.60;99.90
11093;DHT22;5600;50.864;6.102;2022-09-29T10:27:49;16.70;99.90
11093;DHT22;5600;50.864;6.102;2022-09-29T10:30:52;16.70;99.90
11093;DHT22;5600;50.864;6.102;2022-09-29T10:34:20;16.70;99.90
11093;DHT22;5600;50.864;6.102;2022-09-29T10:37:31;16.80;99.90
11093;DHT22;5600;50.864;6.102;2022-09-29T10:40:34;16.80;99.90
11093;DHT22;5600;50.864;6.102;2022-09-29T10:46:52;16.60;99.90
11093;DHT22;5600;50.864;6.102;2022-09-29T10:50:10;16.50;99.90
11093;DHT22;5600;50.864;6.102;2022-09-29T10:56:36;15.80;99.90
11093;DHT22;5600;50.864;6.102;2022-09-29T10:59:46;15.50;99.90
11093;DHT22;5600;50.864;6.102;2022-09-29T11:02:47;15.20;99.90
11093;DHT22;5600;50.864;6.102;2022-09-29T11:05:52;15.10;99.90
11093;DHT22;5600;50.864;6.102;2022-09-29T11:09:06;15.50;99.90
11093;DHT22;5600;50.864;6.102;2022-09-29T11:12:30;15.90;99.90
11093;DHT22;5600;50.864;6.102;2022-09-29T11:15:38;16.50;99.90
11093;DHT22;5600;50.864;6.102;2022-09-29T11:18:41;16.50;99.90
11093;DHT22;5600;50.864;6.102;2022-09-29T11:25:21;16.50;99.90
11093;DHT22;5600;50.864;6.102;2022-09-29T11:28:45;16.30;99.90
11093;DHT22;5600;50.864;6.102;2022-09-29T11:45:11;15.20;99.90
11093;DHT22;5600;50.864;6.102;2022-09-29T11:51:37;15.30;99.90
11093;DHT22;5600;50.864;6.102;2022-09-29T12:04:15;16.70;99.90
11093;DHT22;5600;50.864;6.102;2022-09-29T12:13:59;17.10;99.90
11093;DHT22;5600;50.864;6.102;2022-09-29T12:17:14;17.00;99.90
11093;DHT22;5600;50.864;6.102;2022-09-29T12:20:18;17.00;99.90
11093;DHT22;5600;50.864;6.102;2022-09-29T12:23:23;16.80;99.90
11093;DHT22;5600;50.864;6.102;2022-09-29T12:26:25;16.70;99.90
11093;DHT22;5600;50.864;6.102;2022-09-29T12:29:39;16.50;99.90
11093;DHT22;5600;50.864;6.102;2022-09-29T12:32:46;16.50;99.90
11093;DHT22;5600;50.864;6.102;2022-09-29T12:43:03;16.50;99.90
11093;DHT22;5600;50.864;6.102;2022-09-29T12:46:10;16.50;99.90
11093;DHT22;5600;50.864;6.102;2022-09-29T12:49:18;16.60;99.90
11093;DHT22;5600;50.864;6.102;2022-09-29T12:52:25;16.90;99.90
11093;DHT22;5600;50.864;6.102;2022-09-29T12:55:40;16.90;99.90
11093;DHT22;5600;50.864;6.102;2022-09-29T12:58:44;16.70;99.90
11093;DHT22;5600;50.864;6.102;2022-09-29T13:01:54;16.50;99.90
11093;DHT22;5600;50.864;6.102;2022-09-29T13:11:47;16.90;99.90
11093;DHT22;5600;50.864;6.102;2022-09-29T13:14:57;17.10;99.90
11093;DHT22;5600;50.864;6.102;2022-09-29T13:21:49;17.60;99.90
11093;DHT22;5600;50.864;6.102;2022-09-29T13:28:28;17.80;99.90
11093;DHT22;5600;50.864;6.102;2022-09-29T13:31:35;17.80;99.90
11093;DHT22;5600;50.864;6.102;2022-09-29T13:34:38;17.90;99.90
11093;DHT22;5600;50.864;6.102;2022-09-29T13:37:46;17.90;99.90
11093;DHT22;5600;50.864;6.102;2022-09-29T13:41:11;18.20;99.60
11093;DHT22;5600;50.864;6.102;2022-09-29T13:47:32;18.40;98.70
11093;DHT22;5600;50.864;6.102;2022-09-29T13:53:43;17.70;99.60
11093;DHT22;5600;50.864;6.102;2022-09-29T13:56:48;17.80;99.10
11093;DHT22;5600;50.864;6.102;2022-09-29T14:03:04;18.20;99.90
11093;DHT22;5600;50.864;6.102;2022-09-29T14:06:15;18.10;99.90
11093;DHT22;5600;50.864;6.102;2022-09-29T14:09:19;18.30;99.90
11093;DHT22;5600;50.864;6.102;2022-09-29T14:12:25;18.50;99.90
11093;DHT22;5600;50.864;6.102;2022-09-29T14:15:32;18.70;99.90
11093;DHT22;5600;50.864;6.102;2022-09-29T14:18:41;18.70;99.90
11093;DHT22;5600;50.864;6.102;2022-09-29T14:24:48;18.80;99.90
11093;DHT22;5600;50.864;6.102;2022-09-29T14:31:01;18.90;99.90
11093;DHT22;5600;50.864;6.102;2022-09-29T14:34:03;18.60;99.90
11093;DHT22;5600;50.864;6.102;2022-09-29T14:37:05;18.50;99.90
11093;DHT22;5600;50.864;6.102;2022-09-29T14:40:07;18.20;99.90
11093;DHT22;5600;50.864;6.102;2022-09-29T14:43:46;18.10;99.90
11093;DHT22;5600;50.864;6.102;2022-09-29T14:47:14;17.80;99.90
11093;DHT22;5600;50.864;6.102;2022-09-29T14:50:51;17.60;99.90
11093;DHT22;5600;50.864;6.102;2022-09-29T15:01:11;16.90;99.90
11093;DHT22;5600;50.864;6.102;2022-09-29T15:04:16;16.60;99.90
11093;DHT22;5600;50.864;6.102;2022-09-29T15:07:24;16.70;99.90
11093;DHT22;5600;50.864;6.102;2022-09-29T15:10:30;16.50;99.90
11093;DHT22;5600;50.864;6.102;2022-09-29T15:13:31;16.40;99.90
11093;DHT22;5600;50.864;6.102;2022-09-29T15:27:05;15.90;99.90
11093;DHT22;5600;50.864;6.102;2022-09-29T15:30:13;15.70;99.90
11093;DHT22;5600;50.864;6.102;2022-09-29T15:33:25;15.50;99.90
11093;DHT22;5600;50.864;6.102;2022-09-29T15:36:37;15.30;99.90
11093;DHT22;5600;50.864;6.102;2022-09-29T15:39:47;15.10;99.90
11093;DHT22;5600;50.864;6.102;2022-09-29T15:42:49;14.90;99.90
11093;DHT22;5600;50.864;6.102;2022-09-29T15:45:59;14.70;99.90
11093;DHT22;5600;50.864;6.102;2022-09-29T15:49:24;14.50;99.90
11093;DHT22;5600;50.864;6.102;2022-09-29T15:52:24;13.90;99.90
11093;DHT22;5600;50.864;6.102;2022-09-29T15:55:28;14.40;99.90
11093;DHT22;5600;50.864;6.102;2022-09-29T15:58:33;14.30;99.90
11093;DHT22;5600;50.864;6.102;2022-09-29T16:01:36;14.30;99.90
11093;DHT22;5600;50.864;6.102;2022-09-29T16:04:37;14.20;99.90
11093;DHT22;5600;50.864;6.102;2022-09-29T16:07:40;14.20;99.90
11093;DHT22;5600;50.864;6.102;2022-09-29T16:10:53;14.20;99.90
11093;DHT22;5600;50.864;6.102;2022-09-29T16:17:18;14.10;99.90
11093;DHT22;5600;50.864;6.102;2022-09-29T16:20:30;14.10;99.90
11093;DHT22;5600;50.864;6.102;2022-09-29T16:23:42;14.10;99.90
11093;DHT22;5600;50.864;6.102;2022-09-29T16:26:49;14.00;99.90
11093;DHT22;5600;50.864;6.102;2022-09-29T16:30:04;14.00;99.90
11093;DHT22;5600;50.864;6.102;2022-09-29T16:33:19;13.90;99.90
11093;DHT22;5600;50.864;6.102;2022-09-29T16:36:23;13.80;99.90
11093;DHT22;5600;50.864;6.102;2022-09-29T16:39:27;13.70;99.90
11093;DHT22;5600;50.864;6.102;2022-09-29T16:42:29;13.50;99.90
11093;DHT22;5600;50.864;6.102;2022-09-29T16:45:29;13.40;99.90
11093;DHT22;5600;50.864;6.102;2022-09-29T16:48:36;13.30;99.90
11093;DHT22;5600;50.864;6.102;2022-09-29T16:51:42;13.10;99.90
11093;DHT22;5600;50.864;6.102;2022-09-29T16:54:46;13.00;99.90
11093;DHT22;5600;50.864;6.102;2022-09-29T16:58:03;12.90;99.90
11093;DHT22;5600;50.864;6.102;2022-09-29T17:01:05;12.80;99.90
11093;DHT22;5600;50.864;6.102;2022-09-29T17:04:09;12.60;99.90
11093;DHT22;5600;50.864;6.102;2022-09-29T17:07:14;12.60;99.90
11093;DHT22;5600;50.864;6.102;2022-09-29T17:10:17;12.40;99.90
11093;DHT22;5600;50.864;6.102;2022-09-29T17:13:19;12.30;99.90
11093;DHT22;5600;50.864;6.102;2022-09-29T17:16:19;12.20;99.90
11093;DHT22;5600;50.864;6.102;2022-09-29T17:19:21;12.10;99.90
11093;DHT22;5600;50.864;6.102;2022-09-29T17:22:31;11.90;99.90
11093;DHT22;5600;50.864;6.102;2022-09-29T17:25:34;11.80;99.90
11093;DHT22;5600;50.864;6.102;2022-09-29T17:28:35;11.60;99.90
11093;DHT22;5600;50.864;6.102;2022-09-29T17:31:36;11.60;99.90
11093;DHT22;5600;50.864;6.102;2022-09-29T17:34:36;11.40;99.90
11093;DHT22;5600;50.864;6.102;2022-09-29T17:37:38;11.30;99.90
11093;DHT22;5600;50.864;6.102;2022-09-29T17:40:56;11.30;99.90
11093;DHT22;5600;50.864;6.102;2022-09-29T17:43:57;11.30;99.90
11093;DHT22;5600;50.864;6.102;2022-09-29T17:46:57;11.20;99.90
11093;DHT22;5600;50.864;6.102;2022-09-29T17:53:18;11.00;99.90
11093;DHT22;5600;50.864;6.102;2022-09-29T17:56:24;10.90;99.90
11093;DHT22;5600;50.864;6.102;2022-09-29T17:59:32;10.80;99.90
11093;DHT22;5600;50.864;6.102;2022-09-29T18:02:39;10.70;99.90
11093;DHT22;5600;50.864;6.102;2022-09-29T18:05:42;10.70;99.90
11093;DHT22;5600;50.864;6.102;2022-09-29T18:08:43;10.60;99.90
11093;DHT22;5600;50.864;6.102;2022-09-29T18:11:44;10.50;99.90
11093;DHT22;5600;50.864;6.102;2022-09-29T18:14:45;10.40;99.90
11093;DHT22;5600;50.864;6.102;2022-09-29T18:17:46;10.30;99.90
11093;DHT22;5600;50.864;6.102;2022-09-29T18:20:47;10.30;99.90
11093;DHT22;5600;50.864;6.102;2022-09-29T18:23:49;10.20;99.90
11093;DHT22;5600;50.864;6.102;2022-09-29T18:26:50;10.10;99.90
11093;DHT22;5600;50.864;6.102;2022-09-29T18:29:50;10.00;99.90
11093;DHT22;5600;50.864;6.102;2022-09-29T18:32:57;9.90;99.90
11093;DHT22;5600;50.864;6.102;2022-09-29T18:36:02;9.90;99.90
11093;DHT22;5600;50.864;6.102;2022-09-29T18:39:03;9.80;99.90
11093;DHT22;5600;50.864;6.102;2022-09-29T18:42:04;9.70;99.90
11093;DHT22;5600;50.864;6.102;2022-09-29T18:45:07;9.70;99.90
11093;DHT22;5600;50.864;6.102;2022-09-29T18:48:13;9.60;99.90
11093;DHT22;5600;50.864;6.102;2022-09-29T18:51:14;9.60;99.90
11093;DHT22;5600;50.864;6.102;2022-09-29T18:54:15;9.50;99.90
11093;DHT22;5600;50.864;6.102;2022-09-29T18:57:17;9.50;99.90
11093;DHT22;5600;50.864;6.102;2022-09-29T19:00:20;9.50;99.90
11093;DHT22;5600;50.864;6.102;2022-09-29T19:03:22;9.40;99.90
11093;DHT22;5600;50.864;6.102;2022-09-29T19:06:23;9.50;99.90
11093;DHT22;5600;50.864;6.102;2022-09-29T19:09:24;9.50;99.90
11093;DHT22;5600;50.864;6.102;2022-09-29T19:12:25;9.30;99.90
11093;DHT22;5600;50.864;6.102;2022-09-29T19:15:30;9.20;99.90
11093;DHT22;5600;50.864;6.102;2022-09-29T19:18:32;9.10;99.90
11093;DHT22;5600;50.864;6.102;2022-09-29T19:21:33;9.00;99.90
11093;DHT22;5600;50.864;6.102;2022-09-29T19:24:34;8.90;99.90
11093;DHT22;5600;50.864;6.102;2022-09-29T19:27:34;8.90;99.90
11093;DHT22;5600;50.864;6.102;2022-09-29T19:30:38;8.80;99.90
11093;DHT22;5600;50.864;6.102;2022-09-29T19:33:40;8.70;99.90
11093;DHT22;5600;50.864;6.102;2022-09-29T19:36:42;8.60;99.90
11093;DHT22;5600;50.864;6.102;2022-09-29T19:39:43;8.60;99.90
11093;DHT22;5600;50.864;6.102;2022-09-29T19:42:43;8.50;99.90
11093;DHT22;5600;50.864;6.102;2022-09-29T19:45:44;8.50;99.90
11093;DHT22;5600;50.864;6.102;2022-09-29T19:48:45;8.40;99.90
11093;DHT22;5600;50.864;6.102;2022-09-29T19:51:46;8.40;99.90
11093;DHT22;5600;50.864;6.102;2022-09-29T19:54:52;8.30;99.90
11093;DHT22;5600;50.864;6.102;2022-09-29T19:57:52;8.30;99.90
11093;DHT22;5600;50.864;6.102;2022-09-29T20:00:56;8.20;99.90
11093;DHT22;5600;50.864;6.102;2022-09-29T20:03:59;8.20;99.90
11093;DHT22;5600;50.864;6.102;2022-09-29T20:07:00;8.10;99.90
11093;DHT22;5600;50.864;6.102;2022-09-29T20:10:01;8.00;99.90
11093;DHT22;5600;50.864;6.102;2022-09-29T20:13:02;8.00;99.90
11093;DHT22;5600;50.864;6.102;2022-09-29T20:16:03;8.00;99.90
11093;DHT22;5600;50.864;6.102;2022-09-29T20:19:06;7.90;99.90
11093;DHT22;5600;50.864;6.102;2022-09-29T20:22:07;7.90;99.90
11093;DHT22;5600;50.864;6.102;2022-09-29T20:25:09;7.90;99.90
11093;DHT22;5600;50.864;6.102;2022-09-29T20:28:10;7.80;99.90
11093;DHT22;5600;50.864;6.102;2022-09-29T20:31:11;7.70;99.90
11093;DHT22;5600;50.864;6.102;2022-09-29T20:34:11;7.70;99.90
11093;DHT22;5600;50.864;6.102;2022-09-29T20:37:13;7.70;99.90
11093;DHT22;5600;50.864;6.102;2022-09-29T20:40:14;7.70;99.90
11093;DHT22;5600;50.864;6.102;2022-09-29T20:43:15;7.60;99.90
11093;DHT22;5600;50.864;6.102;2022-09-29T20:46:16;7.60;99.90
11093;DHT22;5600;50.864;6.102;2022-09-29T20:49:17;7.60;99.90
11093;DHT22;5600;50.864;6.102;2022-09-29T20:52:17;7.60;99.90
11093;DHT22;5600;50.864;6.102;2022-09-29T20:55:18;7.60;99.90
11093;DHT22;5600;50.864;6.102;2022-09-29T20:58:18;7.60;99.90
11093;DHT22;5600;50.864;6.102;2022-09-29T21:01:24;7.50;99.90
11093;DHT22;5600;50.864;6.102;2022-09-29T21:04:25;7.50;99.90
11093;DHT22;5600;50.864;6.102;2022-09-29T21:07:26;7.40;99.90
11093;DHT22;5600;50.864;6.102;2022-09-29T21:10:35;7.40;99.90
11093;DHT22;5600;50.864;6.102;2022-09-29T21:13:37;7.30;99.90
11093;DHT22;5600;50.864;6.102;2022-09-29T21:16:39;7.30;99.90
11093;DHT22;5600;50.864;6.102;2022-09-29T21:19:44;7.20;99.90
11093;DHT22;5600;50.864;6.102;2022-09-29T21:22:45;7.20;99.90
11093;DHT22;5600;50.864;6.102;2022-09-29T21:25:45;7.20;99.90
11093;DHT22;5600;50.864;6.102;2022-09-29T21:28:49;7.20;99.90
11093;DHT22;5600;50.864;6.102;2022-09-29T21:31:50;7.10;99.90
11093;DHT22;5600;50.864;6.102;2022-09-29T21:34:50;7.00;99.90
11093;DHT22;5600;50.864;6.102;2022-09-29T21:37:51;6.90;99.90
11093;DHT22;5600;50.864;6.102;2022-09-29T21:40:52;6.90;99.90
11093;DHT22;5600;50.864;6.102;2022-09-29T21:43:54;6.80;99.90
11093;DHT22;5600;50.864;6.102;2022-09-29T21:46:55;6.80;99.90
11093;DHT22;5600;50.864;6.102;2022-09-29T21:49:56;6.70;99.90
11093;DHT22;5600;50.864;6.102;2022-09-29T21:52:57;6.70;99.90
11093;DHT22;5600;50.864;6.102;2022-09-29T21:56:00;6.60;99.90
11093;DHT22;5600;50.864;6.102;2022-09-29T21:59:02;6.60;99.90
11093;DHT22;5600;50.864;6.102;2022-09-29T22:02:02;6.50;99.90
11093;DHT22;5600;50.864;6.102;2022-09-29T22:05:03;6.50;99.90
11093;DHT22;5600;50.864;6.102;2022-09-29T22:08:04;6.50;99.90
11093;DHT22;5600;50.864;6.102;2022-09-29T22:11:04;6.50;99.90
11093;DHT22;5600;50.864;6.102;2022-09-29T22:14:05;6.40;99.90
11093;DHT22;5600;50.864;6.102;2022-09-29T22:17:08;6.40;99.90
11093;DHT22;5600;50.864;6.102;2022-09-29T22:20:09;6.40;99.90
11093;DHT22;5600;50.864;6.102;2022-09-29T22:23:09;6.30;99.90
11093;DHT22;5600;50.864;6.102;2022-09-29T22:26:13;6.30;99.90